sensor_id;sensor_type;location;lat;lon;timestamp;temperature;humidity
9057;DHT22;4563;54.756;9.400;2023-05-10T00:02:01;18.70;51.10
9057;DHT22;4563;54.756;9.400;2023-05-10T00:04:27;18.60;51.10
9057;DHT22;4563;54.756;9.400;2023-05-10T00:06:54;18.60;51.20
9057;DHT22;4563;54.756;9.400;2023-05-10T00:09:22;18.60;51.10
9057;DHT22;4563;54.756;9.400;2023-05-10T00:11:49;18.60;51.30
9057;DHT22;4563;54.756;9.400;2023-05-10T00:14:16;18.60;51.30
9057;DHT22;4563;54.756;9.400;2023-05-10T00:16:43;18.60;51.40
9057;DHT22;4563;54.756;9.400;2023-05-10T00:19:10;18.50;51.30
9057;DHT22;4563;54.756;9.400;2023-05-10T00:21:37;18.50;51.40
9057;DHT22;4563;54.756;9.400;2023-05-10T00:24:05;18.50;51.30
9057;DHT22;4563;54.756;9.400;2023-05-10T00:26:34;18.40;51.40
9057;DHT22;4563;54.756;9.400;2023-05-10T00:29:00;18.40;52.20
9057;DHT22;4563;54.756;9.400;2023-05-10T00:31:27;18.40;51.50
9057;DHT22;4563;54.756;9.400;2023-05-10T00:33:55;18.40;51.50
9057;DHT22;4563;54.756;9.400;2023-05-10T00:36:22;18.30;51.60
9057;DHT22;4563;54.756;9.400;2023-05-10T00:38:48;18.30;51.70
9057;DHT22;4563;54.756;9.400;2023-05-10T00:41:15;18.30;51.70
9057;DHT22;4563;54.756;9.400;2023-05-10T00:43:43;18.30;51.70
9057;DHT22;4563;54.756;9.400;2023-05-10T00:46:10;18.20;51.80
9057;DHT22;4563;54.756;9.400;2023-05-10T00:48:40;18.20;51.80
9057;DHT22;4563;54.756;9.400;2023-05-10T00:51:07;18.20;51.90
9057;DHT22;4563;54.756;9.400;2023-05-10T00:53:34;18.20;51.90
9057;DHT22;4563;54.756;9.400;2023-05-10T00:56:02;18.20;51.90
9057;DHT22;4563;54.756;9.400;2023-05-10T00:58:29;18.20;52.00
9057;DHT22;4563;54.756;9.400;2023-05-10T01:00:58;18.10;51.90
9057;DHT22;4563;54.756;9.400;2023-05-10T01:03:26;18.10;52.20
9057;DHT22;4563;54.756;9.400;2023-05-10T01:05:53;18.10;52.00
9057;DHT22;4563;54.756;9.400;2023-05-10T01:08:20;18.10;52.20
9057;DHT22;4563;54.756;9.400;2023-05-10T01:10:47;18.10;52.20
9057;DHT22;4563;54.756;9.400;2023-05-10T01:13:23;18.00;52.10
9057;DHT22;4563;54.756;9.400;2023-05-10T01:15:54;18.00;52.60
9057;DHT22;4563;54.756;9.400;2023-05-10T01:18:23;18.00;52.30
9057;DHT22;4563;54.756;9.400;2023-05-10T01:21:01;18.00;52.50
9057;DHT22;4563;54.756;9.400;2023-05-10T01:23:45;18.00;53.20
9057;DHT22;4563;54.756;9.400;2023-05-10T01:26:55;18.00;52.90
9057;DHT22;4563;54.756;9.400;2023-05-10T01:29:47;17.90;53.80
9057;DHT22;4563;54.756;9.400;2023-05-10T01:32:29;17.90;54.00
9057;DHT22;4563;54.756;9.400;2023-05-10T01:35:02;17.90;53.20
9057;DHT22;4563;54.756;9.400;2023-05-10T01:37:36;17.90;53.00
9057;DHT22;4563;54.756;9.400;2023-05-10T01:40:13;17.90;53.00
9057;DHT22;4563;54.756;9.400;2023-05-10T01:42:47;17.90;52.90
9057;DHT22;4563;54.756;9.400;2023-05-10T01:45:21;17.80;52.90
9057;DHT22;4563;54.756;9.400;2023-05-10T01:47:58;17.80;53.10
9057;DHT22;4563;54.756;9.400;2023-05-10T01:50:29;17.80;53.20
9057;DHT22;4563;54.756;9.400;2023-05-10T01:52:58;17.80;52.90
9057;DHT22;4563;54.756;9.400;2023-05-10T01:55:29;17.80;52.90
9057;DHT22;4563;54.756;9.400;2023-05-10T01:58:01;17.70;52.80
9057;DHT22;4563;54.756;9.400;2023-05-10T02:00:29;17.70;53.10
9057;DHT22;4563;54.756;9.400;2023-05-10T02:02:59;17.70;52.80
9057;DHT22;4563;54.756;9.400;2023-05-10T02:05:30;17.70;53.80
9057;DHT22;4563;54.756;9.400;2023-05-10T02:07:59;17.70;52.90
9057;DHT22;4563;54.756;9.400;2023-05-10T02:10:28;17.60;52.80
9057;DHT22;4563;54.756;9.400;2023-05-10T02:12:55;17.60;52.90
9057;DHT22;4563;54.756;9.400;2023-05-10T02:15:26;17.60;52.90
9057;DHT22;4563;54.756;9.400;2023-05-10T02:17:55;17.60;52.90
9057;DHT22;4563;54.756;9.400;2023-05-10T02:20:24;17.60;53.00
9057;DHT22;4563;54.756;9.400;2023-05-10T02:22:54;17.60;53.10
9057;DHT22;4563;54.756;9.400;2023-05-10T02:25:22;17.50;53.00
9057;DHT22;4563;54.756;9.400;2023-05-10T02:27:50;17.50;53.00
9057;DHT22;4563;54.756;9.400;2023-05-10T02:30:18;17.50;53.00
9057;DHT22;4563;54.756;9.400;2023-05-10T02:32:48;17.50;53.10
9057;DHT22;4563;54.756;9.400;2023-05-10T02:35:16;17.50;53.10
9057;DHT22;4563;54.756;9.400;2023-05-10T02:37:45;17.40;53.10
9057;DHT22;4563;54.756;9.400;2023-05-10T02:40:14;17.40;53.30
9057;DHT22;4563;54.756;9.400;2023-05-10T02:42:44;17.40;53.30
9057;DHT22;4563;54.756;9.400;2023-05-10T02:45:15;17.30;53.30
9057;DHT22;4563;54.756;9.400;2023-05-10T02:47:43;17.30;53.50
9057;DHT22;4563;54.756;9.400;2023-05-10T02:50:10;17.30;53.30
9057;DHT22;4563;54.756;9.400;2023-05-10T02:52:42;17.20;53.20
9057;DHT22;4563;54.756;9.400;2023-05-10T02:55:13;17.20;53.60
9057;DHT22;4563;54.756;9.400;2023-05-10T02:57:45;17.20;53.70
9057;DHT22;4563;54.756;9.400;2023-05-10T03:00:13;17.10;53.70
9057;DHT22;4563;54.756;9.400;2023-05-10T03:02:41;17.10;53.50
9057;DHT22;4563;54.756;9.400;2023-05-10T03:05:08;17.10;53.60
9057;DHT22;4563;54.756;9.400;2023-05-10T03:07:35;17.10;53.70
9057;DHT22;4563;54.756;9.400;2023-05-10T03:10:03;17.00;53.60
9057;DHT22;4563;54.756;9.400;2023-05-10T03:12:41;17.00;53.70
9057;DHT22;4563;54.756;9.400;2023-05-10T03:15:17;16.90;54.20
9057;DHT22;4563;54.756;9.400;2023-05-10T03:17:48;16.90;54.00
9057;DHT22;4563;54.756;9.400;2023-05-10T03:20:22;16.90;54.10
9057;DHT22;4563;54.756;9.400;2023-05-10T03:22:53;16.90;54.20
9057;DHT22;4563;54.756;9.400;2023-05-10T03:25:22;16.90;54.20
9057;DHT22;4563;54.756;9.400;2023-05-10T03:27:52;16.80;54.10
9057;DHT22;4563;54.756;9.400;2023-05-10T03:30:19;16.80;54.30
9057;DHT22;4563;54.756;9.400;2023-05-10T03:32:46;16.70;54.10
9057;DHT22;4563;54.756;9.400;2023-05-10T03:35:13;16.70;54.20
9057;DHT22;4563;54.756;9.400;2023-05-10T03:37:40;16.70;54.30
9057;DHT22;4563;54.756;9.400;2023-05-10T03:40:08;16.70;54.30
9057;DHT22;4563;54.756;9.400;2023-05-10T03:42:35;16.60;54.40
9057;DHT22;4563;54.756;9.400;2023-05-10T03:45:04;16.60;54.50
9057;DHT22;4563;54.756;9.400;2023-05-10T03:47:31;16.60;54.60
9057;DHT22;4563;54.756;9.400;2023-05-10T03:49:59;16.60;54.60
9057;DHT22;4563;54.756;9.400;2023-05-10T03:52:28;16.60;54.70
9057;DHT22;4563;54.756;9.400;2023-05-10T03:54:58;16.50;54.60
9057;DHT22;4563;54.756;9.400;2023-05-10T03:57:28;16.50;54.80
9057;DHT22;4563;54.756;9.400;2023-05-10T03:59:55;16.40;54.90
9057;DHT22;4563;54.756;9.400;2023-05-10T04:02:23;16.40;54.80
9057;DHT22;4563;54.756;9.400;2023-05-10T04:04:52;16.40;55.00
9057;DHT22;4563;54.756;9.400;2023-05-10T04:07:19;16.40;55.00
9057;DHT22;4563;54.756;9.400;2023-05-10T04:09:46;16.30;55.00
9057;DHT22;4563;54.756;9.400;2023-05-10T04:12:13;16.30;55.10
9057;DHT22;4563;54.756;9.400;2023-05-10T04:14:56;16.30;55.10
9057;DHT22;4563;54.756;9.400;2023-05-10T04:17:34;16.30;55.80
9057;DHT22;4563;54.756;9.400;2023-05-10T04:20:01;16.30;55.50
9057;DHT22;4563;54.756;9.400;2023-05-10T04:22:32;16.20;55.30
9057;DHT22;4563;54.756;9.400;2023-05-10T04:24:59;16.20;55.50
9057;DHT22;4563;54.756;9.400;2023-05-10T04:27:26;16.20;55.50
9057;DHT22;4563;54.756;9.400;2023-05-10T04:29:54;16.20;55.50
9057;DHT22;4563;54.756;9.400;2023-05-10T04:32:21;16.20;55.60
9057;DHT22;4563;54.756;9.400;2023-05-10T04:34:51;16.20;55.60
9057;DHT22;4563;54.756;9.400;2023-05-10T04:37:19;16.20;55.70
9057;DHT22;4563;54.756;9.400;2023-05-10T04:39:46;16.10;55.60
9057;DHT22;4563;54.756;9.400;2023-05-10T04:42:14;16.10;55.70
9057;DHT22;4563;54.756;9.400;2023-05-10T04:44:41;16.20;55.90
9057;DHT22;4563;54.756;9.400;2023-05-10T04:47:09;16.10;55.80
9057;DHT22;4563;54.756;9.400;2023-05-10T04:49:37;16.10;55.90
9057;DHT22;4563;54.756;9.400;2023-05-10T04:52:06;16.10;55.90
9057;DHT22;4563;54.756;9.400;2023-05-10T04:54:33;16.10;55.90
9057;DHT22;4563;54.756;9.400;2023-05-10T04:57:00;16.10;55.90
9057;DHT22;4563;54.756;9.400;2023-05-10T04:59:27;16.10;56.00
9057;DHT22;4563;54.756;9.400;2023-05-10T05:01:55;16.20;56.00
9057;DHT22;4563;54.756;9.400;2023-05-10T05:04:22;16.10;56.00
9057;DHT22;4563;54.756;9.400;2023-05-10T05:06:49;16.10;56.00
9057;DHT22;4563;54.756;9.400;2023-05-10T05:09:18;16.20;56.00
9057;DHT22;4563;54.756;9.400;2023-05-10T05:11:45;16.20;56.10
9057;DHT22;4563;54.756;9.400;2023-05-10T05:14:12;16.20;56.00
9057;DHT22;4563;54.756;9.400;2023-05-10T05:16:39;16.20;56.00
9057;DHT22;4563;54.756;9.400;2023-05-10T05:19:06;16.20;56.10
9057;DHT22;4563;54.756;9.400;2023-05-10T05:21:33;16.20;56.10
9057;DHT22;4563;54.756;9.400;2023-05-10T05:24:01;16.20;56.10
9057;DHT22;4563;54.756;9.400;2023-05-10T05:26:29;16.20;56.70
9057;DHT22;4563;54.756;9.400;2023-05-10T05:28:56;16.30;56.30
9057;DHT22;4563;54.756;9.400;2023-05-10T05:31:23;16.30;56.10
9057;DHT22;4563;54.756;9.400;2023-05-10T05:33:50;16.30;56.20
9057;DHT22;4563;54.756;9.400;2023-05-10T05:36:17;16.30;56.20
9057;DHT22;4563;54.756;9.400;2023-05-10T05:38:44;16.30;56.20
9057;DHT22;4563;54.756;9.400;2023-05-10T05:41:11;16.30;56.80
9057;DHT22;4563;54.756;9.400;2023-05-10T05:43:40;16.40;56.20
9057;DHT22;4563;54.756;9.400;2023-05-10T05:46:06;16.40;56.40
9057;DHT22;4563;54.756;9.400;2023-05-10T05:48:33;16.40;56.30
9057;DHT22;4563;54.756;9.400;2023-05-10T05:51:00;16.50;56.40
9057;DHT22;4563;54.756;9.400;2023-05-10T05:53:27;16.40;56.40
9057;DHT22;4563;54.756;9.400;2023-05-10T05:55:55;16.50;56.40
9057;DHT22;4563;54.756;9.400;2023-05-10T05:58:22;16.50;56.40
9057;DHT22;4563;54.756;9.400;2023-05-10T06:00:51;16.60;56.50
9057;DHT22;4563;54.756;9.400;2023-05-10T06:03:19;16.60;56.50
9057;DHT22;4563;54.756;9.400;2023-05-10T06:05:46;16.60;56.50
9057;DHT22;4563;54.756;9.400;2023-05-10T06:08:13;16.70;56.50
9057;DHT22;4563;54.756;9.400;2023-05-10T06:10:40;16.70;56.50
9057;DHT22;4563;54.756;9.400;2023-05-10T06:13:07;16.80;56.60
9057;DHT22;4563;54.756;9.400;2023-05-10T06:15:34;16.80;56.60
9057;DHT22;4563;54.756;9.400;2023-05-10T06:18:03;16.90;56.60
9057;DHT22;4563;54.756;9.400;2023-05-10T06:20:29;17.00;56.70
9057;DHT22;4563;54.756;9.400;2023-05-10T06:22:57;17.00;56.70
9057;DHT22;4563;54.756;9.400;2023-05-10T06:25:24;17.10;56.70
9057;DHT22;4563;54.756;9.400;2023-05-10T06:27:51;17.20;56.60
9057;DHT22;4563;54.756;9.400;2023-05-10T06:30:23;17.30;56.60
9057;DHT22;4563;54.756;9.400;2023-05-10T06:32:54;17.30;57.10
9057;DHT22;4563;54.756;9.400;2023-05-10T06:35:22;17.40;56.30
9057;DHT22;4563;54.756;9.400;2023-05-10T06:37:50;17.50;56.40
9057;DHT22;4563;54.756;9.400;2023-05-10T06:40:17;17.60;56.50
9057;DHT22;4563;54.756;9.400;2023-05-10T06:42:44;17.70;56.50
9057;DHT22;4563;54.756;9.400;2023-05-10T06:45:12;17.80;56.40
9057;DHT22;4563;54.756;9.400;2023-05-10T06:47:39;17.90;56.40
9057;DHT22;4563;54.756;9.400;2023-05-10T06:50:07;17.90;56.40
9057;DHT22;4563;54.756;9.400;2023-05-10T06:52:35;18.10;56.50
9057;DHT22;4563;54.756;9.400;2023-05-10T06:55:03;18.20;56.60
9057;DHT22;4563;54.756;9.400;2023-05-10T06:57:32;18.20;56.40
9057;DHT22;4563;54.756;9.400;2023-05-10T07:00:06;18.30;56.40
9057;DHT22;4563;54.756;9.400;2023-05-10T07:02:57;18.40;56.30
9057;DHT22;4563;54.756;9.400;2023-05-10T07:05:31;18.40;56.20
9057;DHT22;4563;54.756;9.400;2023-05-10T07:08:00;18.50;56.40
9057;DHT22;4563;54.756;9.400;2023-05-10T07:10:40;18.60;56.00
9057;DHT22;4563;54.756;9.400;2023-05-10T07:13:11;18.70;56.40
9057;DHT22;4563;54.756;9.400;2023-05-10T07:15:52;18.80;55.60
9057;DHT22;4563;54.756;9.400;2023-05-10T07:18:19;18.90;55.60
9057;DHT22;4563;54.756;9.400;2023-05-10T07:21:01;18.90;55.40
9057;DHT22;4563;54.756;9.400;2023-05-10T07:46:35;19.70;55.40
9057;DHT22;4563;54.756;9.400;2023-05-10T07:49:02;19.90;55.50
9057;DHT22;4563;54.756;9.400;2023-05-10T07:51:31;20.00;55.30
9057;DHT22;4563;54.756;9.400;2023-05-10T07:53:59;20.20;55.40
9057;DHT22;4563;54.756;9.400;2023-05-10T07:56:27;20.40;55.20
9057;DHT22;4563;54.756;9.400;2023-05-10T07:58:55;20.60;55.40
9057;DHT22;4563;54.756;9.400;2023-05-10T08:01:22;20.80;55.20
9057;DHT22;4563;54.756;9.400;2023-05-10T08:03:50;20.90;54.80
9057;DHT22;4563;54.756;9.400;2023-05-10T08:06:19;21.20;55.00
9057;DHT22;4563;54.756;9.400;2023-05-10T08:08:46;21.30;54.90
9057;DHT22;4563;54.756;9.400;2023-05-10T08:11:15;21.50;54.60
9057;DHT22;4563;54.756;9.400;2023-05-10T08:13:41;21.70;54.50
9057;DHT22;4563;54.756;9.400;2023-05-10T08:16:10;21.90;54.70
9057;DHT22;4563;54.756;9.400;2023-05-10T08:18:37;22.10;54.40
9057;DHT22;4563;54.756;9.400;2023-05-10T08:21:07;22.20;54.20
9057;DHT22;4563;54.756;9.400;2023-05-10T08:23:34;22.40;54.40
9057;DHT22;4563;54.756;9.400;2023-05-10T08:26:01;22.50;53.80
9057;DHT22;4563;54.756;9.400;2023-05-10T08:28:28;22.70;53.80
9057;DHT22;4563;54.756;9.400;2023-05-10T08:30:55;22.90;53.80
9057;DHT22;4563;54.756;9.400;2023-05-10T08:33:22;23.10;53.80
9057;DHT22;4563;54.756;9.400;2023-05-10T08:35:48;23.30;53.90
9057;DHT22;4563;54.756;9.400;2023-05-10T08:38:18;23.50;53.90
9057;DHT22;4563;54.756;9.400;2023-05-10T08:40:45;23.60;54.50
9057;DHT22;4563;54.756;9.400;2023-05-10T08:43:12;23.80;53.30
9057;DHT22;4563;54.756;9.400;2023-05-10T08:45:41;24.00;53.20
9057;DHT22;4563;54.756;9.400;2023-05-10T08:48:09;24.20;53.10
9057;DHT22;4563;54.756;9.400;2023-05-10T08:50:37;24.40;52.70
9057;DHT22;4563;54.756;9.400;2023-05-10T08:53:06;24.60;52.60
9057;DHT22;4563;54.756;9.400;2023-05-10T08:55:37;24.70;52.80
9057;DHT22;4563;54.756;9.400;2023-05-10T08:58:05;24.90;52.90
9057;DHT22;4563;54.756;9.400;2023-05-10T09:00:33;25.00;52.00
9057;DHT22;4563;54.756;9.400;2023-05-10T09:03:03;25.20;51.80
9057;DHT22;4563;54.756;9.400;2023-05-10T09:05:30;25.40;52.80
9057;DHT22;4563;54.756;9.400;2023-05-10T09:07:57;25.50;51.90
9057;DHT22;4563;54.756;9.400;2023-05-10T09:10:26;25.60;51.40
9057;DHT22;4563;54.756;9.400;2023-05-10T09:12:56;25.80;51.30
9057;DHT22;4563;54.756;9.400;2023-05-10T09:15:23;25.90;52.20
9057;DHT22;4563;54.756;9.400;2023-05-10T09:17:50;26.00;51.10
9057;DHT22;4563;54.756;9.400;2023-05-10T09:20:17;26.10;50.70
9057;DHT22;4563;54.756;9.400;2023-05-10T09:22:44;26.30;50.70
9057;DHT22;4563;54.756;9.400;2023-05-10T09:25:13;26.40;50.70
9057;DHT22;4563;54.756;9.400;2023-05-10T09:27:43;26.50;50.60
9057;DHT22;4563;54.756;9.400;2023-05-10T09:30:16;26.60;50.30
9057;DHT22;4563;54.756;9.400;2023-05-10T09:32:44;26.70;53.60
9057;DHT22;4563;54.756;9.400;2023-05-10T09:35:13;26.80;50.10
9057;DHT22;4563;54.756;9.400;2023-05-10T09:37:40;26.80;49.70
9057;DHT22;4563;54.756;9.400;2023-05-10T09:40:11;26.90;49.60
9057;DHT22;4563;54.756;9.400;2023-05-10T09:42:39;26.90;50.70
9057;DHT22;4563;54.756;9.400;2023-05-10T09:45:08;26.90;49.50
9057;DHT22;4563;54.756;9.400;2023-05-10T09:47:38;26.90;49.00
9057;DHT22;4563;54.756;9.400;2023-05-10T09:50:05;27.00;49.20
9057;DHT22;4563;54.756;9.400;2023-05-10T09:52:47;26.90;48.90
9057;DHT22;4563;54.756;9.400;2023-05-10T09:55:14;26.90;54.10
9057;DHT22;4563;54.756;9.400;2023-05-10T09:57:41;26.90;48.80
9057;DHT22;4563;54.756;9.400;2023-05-10T10:00:08;26.90;49.30
9057;DHT22;4563;54.756;9.400;2023-05-10T10:02:37;26.90;48.50
9057;DHT22;4563;54.756;9.400;2023-05-10T10:05:07;26.80;48.40
9057;DHT22;4563;54.756;9.400;2023-05-10T10:07:34;26.80;48.20
9057;DHT22;4563;54.756;9.400;2023-05-10T10:10:01;26.70;48.00
9057;DHT22;4563;54.756;9.400;2023-05-10T10:12:30;26.70;47.90
9057;DHT22;4563;54.756;9.400;2023-05-10T10:14:59;26.60;47.70
9057;DHT22;4563;54.756;9.400;2023-05-10T10:17:27;26.60;47.70
9057;DHT22;4563;54.756;9.400;2023-05-10T10:19:57;26.50;47.70
9057;DHT22;4563;54.756;9.400;2023-05-10T10:22:24;26.40;47.60
9057;DHT22;4563;54.756;9.400;2023-05-10T10:24:51;26.40;47.80
9057;DHT22;4563;54.756;9.400;2023-05-10T10:27:23;26.30;48.00
9057;DHT22;4563;54.756;9.400;2023-05-10T10:30:00;26.20;48.00
9057;DHT22;4563;54.756;9.400;2023-05-10T10:32:51;26.10;48.40
9057;DHT22;4563;54.756;9.400;2023-05-10T10:35:23;26.10;50.20
9057;DHT22;4563;54.756;9.400;2023-05-10T10:37:51;26.00;47.60
9057;DHT22;4563;54.756;9.400;2023-05-10T10:40:25;25.90;47.40
9057;DHT22;4563;54.756;9.400;2023-05-10T10:42:53;25.80;48.30
9057;DHT22;4563;54.756;9.400;2023-05-10T10:45:21;25.80;47.50
9057;DHT22;4563;54.756;9.400;2023-05-10T10:47:49;25.70;47.50
9057;DHT22;4563;54.756;9.400;2023-05-10T10:50:19;25.60;47.70
9057;DHT22;4563;54.756;9.400;2023-05-10T10:52:47;25.60;47.70
9057;DHT22;4563;54.756;9.400;2023-05-10T10:55:18;25.50;47.50
9057;DHT22;4563;54.756;9.400;2023-05-10T10:57:49;25.40;47.70
9057;DHT22;4563;54.756;9.400;2023-05-10T11:00:25;25.30;47.70
9057;DHT22;4563;54.756;9.400;2023-05-10T11:02:53;25.20;48.40
9057;DHT22;4563;54.756;9.400;2023-05-10T11:08:16;24.90;48.00
9057;DHT22;4563;54.756;9.400;2023-05-10T11:10:53;24.80;48.20
9057;DHT22;4563;54.756;9.400;2023-05-10T11:13:31;24.70;48.60
9057;DHT22;4563;54.756;9.400;2023-05-10T11:15:59;24.60;49.00
9057;DHT22;4563;54.756;9.400;2023-05-10T11:18:36;24.50;48.10
9057;DHT22;4563;54.756;9.400;2023-05-10T11:21:03;24.40;48.20
9057;DHT22;4563;54.756;9.400;2023-05-10T11:23:47;24.30;48.20
9057;DHT22;4563;54.756;9.400;2023-05-10T11:26:14;24.20;48.20
9057;DHT22;4563;54.756;9.400;2023-05-10T11:28:42;24.10;48.40
9057;DHT22;4563;54.756;9.400;2023-05-10T11:31:10;24.10;48.20
9057;DHT22;4563;54.756;9.400;2023-05-10T11:33:42;24.00;48.50
9057;DHT22;4563;54.756;9.400;2023-05-10T11:36:11;23.90;48.80
9057;DHT22;4563;54.756;9.400;2023-05-10T11:38:41;23.90;48.40
9057;DHT22;4563;54.756;9.400;2023-05-10T11:41:09;23.80;48.30
9057;DHT22;4563;54.756;9.400;2023-05-10T11:43:37;23.70;48.40
9057;DHT22;4563;54.756;9.400;2023-05-10T11:46:05;23.60;48.50
9057;DHT22;4563;54.756;9.400;2023-05-10T11:48:32;23.60;48.60
9057;DHT22;4563;54.756;9.400;2023-05-10T11:51:00;23.50;48.60
9057;DHT22;4563;54.756;9.400;2023-05-10T11:53:29;23.50;48.60
9057;DHT22;4563;54.756;9.400;2023-05-10T11:56:02;23.40;48.80
9057;DHT22;4563;54.756;9.400;2023-05-10T11:58:31;23.30;50.20
9057;DHT22;4563;54.756;9.400;2023-05-10T12:00:58;23.30;49.20
9057;DHT22;4563;54.756;9.400;2023-05-10T12:03:26;23.20;48.80
9057;DHT22;4563;54.756;9.400;2023-05-10T12:05:53;23.20;49.30
9057;DHT22;4563;54.756;9.400;2023-05-10T12:08:22;23.10;49.20
9057;DHT22;4563;54.756;9.400;2023-05-10T12:10:49;23.10;49.10
9057;DHT22;4563;54.756;9.400;2023-05-10T12:13:19;23.00;49.00
9057;DHT22;4563;54.756;9.400;2023-05-10T12:15:46;23.00;49.20
9057;DHT22;4563;54.756;9.400;2023-05-10T12:18:14;22.90;49.10
9057;DHT22;4563;54.756;9.400;2023-05-10T12:20:41;22.90;49.50
9057;DHT22;4563;54.756;9.400;2023-05-10T12:23:09;22.90;50.20
9057;DHT22;4563;54.756;9.400;2023-05-10T12:25:37;22.90;50.70
9057;DHT22;4563;54.756;9.400;2023-05-10T12:28:07;22.80;51.20
9057;DHT22;4563;54.756;9.400;2023-05-10T12:30:36;22.70;51.70
9057;DHT22;4563;54.756;9.400;2023-05-10T12:33:08;22.70;52.10
9057;DHT22;4563;54.756;9.400;2023-05-10T12:35:44;22.70;52.70
9057;DHT22;4563;54.756;9.400;2023-05-10T12:38:27;22.60;53.20
9057;DHT22;4563;54.756;9.400;2023-05-10T12:40:56;22.50;53.50
9057;DHT22;4563;54.756;9.400;2023-05-10T12:43:24;22.40;52.80
9057;DHT22;4563;54.756;9.400;2023-05-10T12:45:53;22.40;53.20
9057;DHT22;4563;54.756;9.400;2023-05-10T12:48:20;22.30;53.40
9057;DHT22;4563;54.756;9.400;2023-05-10T12:50:47;22.30;53.40
9057;DHT22;4563;54.756;9.400;2023-05-10T12:53:15;22.20;53.70
9057;DHT22;4563;54.756;9.400;2023-05-10T12:55:44;22.10;53.90
9057;DHT22;4563;54.756;9.400;2023-05-10T12:58:11;22.00;54.00
9057;DHT22;4563;54.756;9.400;2023-05-10T13:00:38;22.00;54.10
9057;DHT22;4563;54.756;9.400;2023-05-10T13:03:07;21.90;54.30
9057;DHT22;4563;54.756;9.400;2023-05-10T13:05:33;21.90;54.90
9057;DHT22;4563;54.756;9.400;2023-05-10T13:08:01;21.90;55.30
9057;DHT22;4563;54.756;9.400;2023-05-10T13:10:29;21.80;55.20
9057;DHT22;4563;54.756;9.400;2023-05-10T13:12:56;21.70;55.40
9057;DHT22;4563;54.756;9.400;2023-05-10T13:15:23;21.70;55.60
9057;DHT22;4563;54.756;9.400;2023-05-10T13:17:50;21.70;55.80
9057;DHT22;4563;54.756;9.400;2023-05-10T13:20:18;21.60;56.00
9057;DHT22;4563;54.756;9.400;2023-05-10T13:22:45;21.60;56.30
9057;DHT22;4563;54.756;9.400;2023-05-10T13:25:12;21.50;56.20
9057;DHT22;4563;54.756;9.400;2023-05-10T13:27:39;21.50;56.40
9057;DHT22;4563;54.756;9.400;2023-05-10T13:30:08;21.50;56.80
9057;DHT22;4563;54.756;9.400;2023-05-10T13:32:35;21.40;56.70
9057;DHT22;4563;54.756;9.400;2023-05-10T13:35:03;21.30;56.80
9057;DHT22;4563;54.756;9.400;2023-05-10T13:37:31;21.30;57.10
9057;DHT22;4563;54.756;9.400;2023-05-10T13:40:00;21.30;57.40
9057;DHT22;4563;54.756;9.400;2023-05-10T13:42:28;21.20;57.00
9057;DHT22;4563;54.756;9.400;2023-05-10T13:44:55;21.20;56.90
9057;DHT22;4563;54.756;9.400;2023-05-10T13:47:22;21.20;56.90
9057;DHT22;4563;54.756;9.400;2023-05-10T13:49:49;21.10;56.90
9057;DHT22;4563;54.756;9.400;2023-05-10T13:52:15;21.10;57.00
9057;DHT22;4563;54.756;9.400;2023-05-10T13:54:44;21.00;57.00
9057;DHT22;4563;54.756;9.400;2023-05-10T13:57:11;21.00;57.20
9057;DHT22;4563;54.756;9.400;2023-05-10T13:59:39;21.00;56.90
9057;DHT22;4563;54.756;9.400;2023-05-10T14:02:06;20.90;57.00
9057;DHT22;4563;54.756;9.400;2023-05-10T14:04:33;20.80;57.10
9057;DHT22;4563;54.756;9.400;2023-05-10T14:07:01;20.80;57.20
9057;DHT22;4563;54.756;9.400;2023-05-10T14:09:30;20.70;57.30
9057;DHT22;4563;54.756;9.400;2023-05-10T14:11:58;20.70;57.40
9057;DHT22;4563;54.756;9.400;2023-05-10T14:14:25;20.70;57.60
9057;DHT22;4563;54.756;9.400;2023-05-10T14:16:52;20.60;57.70
9057;DHT22;4563;54.756;9.400;2023-05-10T14:19:18;20.60;57.60
9057;DHT22;4563;54.756;9.400;2023-05-10T14:21:45;20.50;57.60
9057;DHT22;4563;54.756;9.400;2023-05-10T14:24:13;20.50;57.80
9057;DHT22;4563;54.756;9.400;2023-05-10T14:26:40;20.50;58.00
9057;DHT22;4563;54.756;9.400;2023-05-10T14:29:08;20.40;58.00
9057;DHT22;4563;54.756;9.400;2023-05-10T14:31:35;20.30;57.90
9057;DHT22;4563;54.756;9.400;2023-05-10T14:34:02;20.30;58.00
9057;DHT22;4563;54.756;9.400;2023-05-10T14:36:29;20.30;58.20
9057;DHT22;4563;54.756;9.400;2023-05-10T14:38:55;20.20;58.40
9057;DHT22;4563;54.756;9.400;2023-05-10T14:41:22;20.20;58.60
9057;DHT22;4563;54.756;9.400;2023-05-10T14:43:50;20.20;58.80
9057;DHT22;4563;54.756;9.400;2023-05-10T14:46:18;20.10;58.90
9057;DHT22;4563;54.756;9.400;2023-05-10T14:48:45;20.10;59.00
9057;DHT22;4563;54.756;9.400;2023-05-10T14:51:12;20.10;58.80
9057;DHT22;4563;54.756;9.400;2023-05-10T14:53:42;20.10;59.00
9057;DHT22;4563;54.756;9.400;2023-05-10T14:56:09;20.10;59.00
9057;DHT22;4563;54.756;9.400;2023-05-10T14:58:36;20.00;59.00
9057;DHT22;4563;54.756;9.400;2023-05-10T15:01:03;19.90;59.10
9057;DHT22;4563;54.756;9.400;2023-05-10T15:03:31;20.00;59.40
9057;DHT22;4563;54.756;9.400;2023-05-10T15:05:58;19.90;59.50
9057;DHT22;4563;54.756;9.400;2023-05-10T15:08:25;19.90;59.60
9057;DHT22;4563;54.756;9.400;2023-05-10T15:10:52;19.90;59.80
9057;DHT22;4563;54.756;9.400;2023-05-10T15:13:20;19.90;59.80
9057;DHT22;4563;54.756;9.400;2023-05-10T15:15:47;19.90;59.80
9057;DHT22;4563;54.756;9.400;2023-05-10T15:18:14;19.90;59.70
9057;DHT22;4563;54.756;9.400;2023-05-10T15:20:42;19.90;59.50
9057;DHT22;4563;54.756;9.400;2023-05-10T15:23:09;19.80;59.60
9057;DHT22;4563;54.756;9.400;2023-05-10T15:25:36;19.80;59.60
9057;DHT22;4563;54.756;9.400;2023-05-10T15:28:04;19.80;59.70
9057;DHT22;4563;54.756;9.400;2023-05-10T15:30:31;19.80;59.60
9057;DHT22;4563;54.756;9.400;2023-05-10T15:32:58;19.80;59.70
9057;DHT22;4563;54.756;9.400;2023-05-10T15:35:25;19.80;59.80
9057;DHT22;4563;54.756;9.400;2023-05-10T15:37:54;19.80;59.80
9057;DHT22;4563;54.756;9.400;2023-05-10T15:40:20;19.80;60.00
9057;DHT22;4563;54.756;9.400;2023-05-10T15:42:50;19.80;60.10
9057;DHT22;4563;54.756;9.400;2023-05-10T15:45:17;19.70;60.20
9057;DHT22;4563;54.756;9.400;2023-05-10T15:47:44;19.70;60.40
9057;DHT22;4563;54.756;9.400;2023-05-10T15:50:11;19.70;60.50
9057;DHT22;4563;54.756;9.400;2023-05-10T15:52:38;19.70;60.70
9057;DHT22;4563;54.756;9.400;2023-05-10T15:55:08;19.60;60.60
9057;DHT22;4563;54.756;9.400;2023-05-10T15:57:37;19.60;60.70
9057;DHT22;4563;54.756;9.400;2023-05-10T16:00:07;19.60;60.80
9057;DHT22;4563;54.756;9.400;2023-05-10T16:02:34;19.60;60.70
9057;DHT22;4563;54.756;9.400;2023-05-10T16:05:02;19.50;60.50
9057;DHT22;4563;54.756;9.400;2023-05-10T16:07:29;19.50;60.60
9057;DHT22;4563;54.756;9.400;2023-05-10T16:09:56;19.50;60.70
9057;DHT22;4563;54.756;9.400;2023-05-10T16:12:25;19.40;60.60
9057;DHT22;4563;54.756;9.400;2023-05-10T16:14:52;19.40;60.70
9057;DHT22;4563;54.756;9.400;2023-05-10T16:17:19;19.40;60.90
9057;DHT22;4563;54.756;9.400;2023-05-10T16:19:46;19.30;61.00
9057;DHT22;4563;54.756;9.400;2023-05-10T16:22:13;19.30;61.10
9057;DHT22;4563;54.756;9.400;2023-05-10T16:24:40;19.30;61.20
9057;DHT22;4563;54.756;9.400;2023-05-10T16:27:07;19.20;61.10
9057;DHT22;4563;54.756;9.400;2023-05-10T16:29:35;19.20;62.10
9057;DHT22;4563;54.756;9.400;2023-05-10T16:32:02;19.20;61.50
9057;DHT22;4563;54.756;9.400;2023-05-10T16:34:29;19.10;61.40
9057;DHT22;4563;54.756;9.400;2023-05-10T16:36:57;19.10;61.60
9057;DHT22;4563;54.756;9.400;2023-05-10T16:39:24;19.10;61.70